Time;durP1;ratioP1;P1;durP2;ratioP2;P2;SDS_P1;SDS_P2;PMS_P1;PMS_P2;Temp;Humidity;BMP_temperature;BMP_pressure;BME280_temperature;BME280_humidity;BME280_pressure;Samples;Min_cycle;Max_cycle;Signal;HPM_P1;HPM_P2
2022/12/21 00:01:54;;;;;;;;;10.00;10.00;;;;;12.38;92.74;100537.41;5039520;28;45340;-59
2022/12/21 00:04:19;;;;;;;;;10.00;9.00;;;;;12.40;92.55;100542.63;5026576;28;46207;-59
2022/12/21 00:06:45;;;;;;;;;9.00;8.33;;;;;12.43;92.30;100557.56;5018761;28;45249;-58
2022/12/21 00:09:13;;;;;;;;;14.00;10.00;;;;;12.44;92.21;100548.63;5001837;28;45284;-59
2022/12/21 00:11:39;;;;;;;;;13.67;9.33;;;;;12.39;92.09;100535.59;5019015;28;45319;-58
2022/12/21 00:14:05;;;;;;;;;10.00;10.00;;;;;12.45;91.80;100540.50;5018695;28;45286;-58
2022/12/21 00:16:33;;;;;;;;;11.00;10.00;;;;;12.45;92.33;100547.66;5018483;28;45467;-62
2022/12/21 00:19:00;;;;;;;;;12.00;12.00;;;;;12.47;91.91;100551.06;5018887;28;45468;-59
2022/12/21 00:21:28;;;;;;;;;14.00;10.00;;;;;12.52;91.96;100551.66;5018491;28;45560;-58
2022/12/21 00:23:58;;;;;;;;;9.33;9.33;;;;;12.51;91.55;100556.13;5018064;28;46215;-58
2022/12/21 00:26:28;;;;;;;;;15.67;10.67;;;;;12.52;91.56;100552.50;5018363;28;45792;-60
2022/12/21 00:28:55;;;;;;;;;8.67;8.67;;;;;12.55;91.50;100551.44;5018684;28;45325;-57
2022/12/21 00:31:28;;;;;;;;;14.00;8.33;;;;;12.58;91.14;100535.25;5018690;28;45464;-58
2022/12/21 00:33:55;;;;;;;;;13.67;9.00;;;;;12.56;91.02;100547.81;5018226;28;46368;-57
2022/12/21 00:36:22;;;;;;;;;10.67;10.67;;;;;12.55;91.35;100535.44;5018139;28;45465;-57
2022/12/21 00:38:48;;;;;;;;;8.33;8.00;;;;;12.53;91.78;100537.38;5018349;28;45450;-59
2022/12/21 00:41:16;;;;;;;;;8.00;8.00;;;;;12.53;91.08;100540.03;5018793;28;45243;-59
2022/12/21 00:43:43;;;;;;;;;10.00;9.00;;;;;12.49;91.89;100533.16;5000863;28;46340;-58
2022/12/21 00:46:16;;;;;;;;;13.00;10.33;;;;;12.54;91.24;100533.72;5017291;28;45365;-59
2022/12/21 00:48:41;;;;;;;;;8.33;8.33;;;;;12.55;91.50;100540.78;5018555;28;45300;-59
2022/12/21 00:51:09;;;;;;;;;10.00;9.00;;;;;12.57;91.28;100546.88;5018415;28;45633;-58
2022/12/21 00:53:35;;;;;;;;;8.33;7.00;;;;;12.51;91.51;100531.28;5018118;28;45412;-57
2022/12/21 00:56:02;;;;;;;;;10.67;9.33;;;;;12.55;91.47;100540.78;5018342;28;45408;-59
2022/12/21 00:58:29;;;;;;;;;9.33;8.00;;;;;12.57;91.37;100555.72;5018560;28;45277;-63
2022/12/21 01:01:03;;;;;;;;;10.33;10.00;;;;;12.58;91.21;100551.25;5018914;28;45515;-59
2022/12/21 01:03:28;;;;;;;;;12.67;10.33;;;;;12.53;91.52;100553.38;5017921;28;45248;-58
2022/12/21 01:05:54;;;;;;;;;12.00;8.67;;;;;12.53;92.20;100548.88;5017875;28;45219;-58
2022/12/21 01:08:21;;;;;;;;;12.67;10.67;;;;;12.57;91.39;100555.72;5017882;28;45332;-58
2022/12/21 01:10:46;;;;;;;;;7.33;7.00;;;;;12.54;91.90;100558.59;5028123;28;45312;-58
2022/12/21 01:13:14;;;;;;;;;11.33;9.00;;;;;12.57;91.85;100566.41;5020111;28;46915;-58
2022/12/21 01:15:44;;;;;;;;;9.67;7.67;;;;;12.53;92.19;100559.56;5037765;28;45426;-58
2022/12/21 01:18:11;;;;;;;;;7.67;7.67;;;;;12.52;92.58;100549.84;5037817;28;45272;-58
2022/12/21 01:20:55;;;;;;;;;9.67;9.67;;;;;12.52;92.68;100557.00;5037845;28;45533;-60
2022/12/21 01:23:22;;;;;;;;;10.67;10.67;;;;;12.51;92.15;100550.81;5019388;28;46310;-58
2022/12/21 01:25:48;;;;;;;;;8.00;8.00;;;;;12.59;92.48;100566.28;5037544;28;45512;-58
2022/12/21 01:28:14;;;;;;;;;7.67;6.67;;;;;12.60;91.76;100568.00;5037903;28;45354;-59
2022/12/21 01:30:40;;;;;;;;;13.00;9.00;;;;;12.61;91.92;100572.38;5037427;28;45544;-59
2022/12/21 01:33:11;;;;;;;;;12.67;9.00;;;;;12.58;92.03;100576.09;5037107;28;46240;-58
2022/12/21 01:35:39;;;;;;;;;9.33;7.67;;;;;12.55;92.07;100557.66;5037514;28;45384;-57
2022/12/21 01:38:05;;;;;;;;;8.67;8.67;;;;;12.61;91.68;100567.03;5019709;28;45482;-59
2022/12/21 01:40:31;;;;;;;;;10.00;10.00;;;;;12.56;91.45;100564.69;5037278;28;45521;-63
2022/12/21 01:42:56;;;;;;;;;9.67;7.67;;;;;12.67;91.31;100578.19;5037108;28;45463;-61
2022/12/21 01:45:27;;;;;;;;;7.00;7.00;;;;;12.63;91.38;100554.47;5036230;28;45387;-58
2022/12/21 01:47:58;;;;;;;;;8.67;7.33;;;;;12.65;91.05;100563.25;5037158;28;45359;-57
2022/12/21 01:50:27;;;;;;;;;8.67;7.33;;;;;12.74;91.38;100583.13;5019534;28;45438;-57
2022/12/21 01:52:55;;;;;;;;;8.00;8.00;;;;;12.75;91.02;100588.34;5036816;28;46203;-58
2022/12/21 01:55:21;;;;;;;;;7.67;6.67;;;;;12.71;90.32;100589.50;5036698;28;45464;-58
2022/12/21 01:57:47;;;;;;;;;5.67;5.67;;;;;12.69;90.30;100586.94;5037034;28;45336;-57
2022/12/21 02:00:14;;;;;;;;;6.33;4.67;;;;;12.81;90.04;100597.78;5037358;28;45244;-57
2022/12/21 02:02:44;;;;;;;;;4.33;4.33;;;;;12.81;90.01;100605.78;5036694;28;46449;-59
2022/12/21 02:05:21;;;;;;;;;6.33;5.00;;;;;12.76;89.48;100597.22;5018091;28;45430;-58
2022/12/21 02:07:50;;;;;;;;;11.00;5.00;;;;;12.76;88.40;100614.09;5017279;28;45411;-59
2022/12/21 02:10:16;;;;;;;;;3.67;3.67;;;;;12.74;87.76;100610.66;5016882;28;45458;-58
2022/12/21 02:12:43;;;;;;;;;2.00;2.00;;;;;12.67;85.79;100615.53;5016674;28;45977;-57
2022/12/21 02:15:09;;;;;;;;;4.00;2.00;;;;;12.65;85.52;100624.63;5016925;28;45551;-57
2022/12/21 02:18:01;;;;;;;;;2.00;2.00;;;;;12.59;84.34;100633.00;5016742;28;45892;-59
2022/12/21 02:20:49;;;;;;;;;1.00;1.00;;;;;12.55;84.46;100631.47;5016958;28;45262;-59
2022/12/21 02:23:48;;;;;;;;;0.00;0.00;;;;;12.50;83.72;100625.56;5016519;28;46401;-58
2022/12/21 02:26:35;;;;;;;;;0.00;0.00;;;;;12.37;83.33;100623.69;5016305;28;45360;-58
2022/12/21 02:29:13;;;;;;;;;1.33;1.00;;;;;12.27;83.52;100616.38;5016411;28;45236;-59
2022/12/21 02:32:02;;;;;;;;;1.00;1.00;;;;;12.17;83.64;100616.06;5016981;28;45293;-59
2022/12/21 02:34:40;;;;;;;;;1.00;1.00;;;;;12.11;84.21;100616.47;5016124;28;45518;-58
2022/12/21 02:37:05;;;;;;;;;2.00;2.00;;;;;11.99;84.04;100618.09;4998357;28;45865;-58
2022/12/21 02:39:49;;;;;;;;;1.00;1.00;;;;;11.96;84.22;100630.72;5016320;28;45193;-57
2022/12/21 02:45:56;;;;;;;;;2.00;1.00;;;;;11.79;84.19;100621.94;4993509;28;45594;-57
2022/12/21 02:48:50;;;;;;;;;1.00;1.00;;;;;11.71;84.88;100621.50;5016797;28;45931;-57
2022/12/21 02:51:25;;;;;;;;;2.00;0.33;;;;;11.66;84.61;100620.09;5016066;28;45391;-56
2022/12/21 02:53:51;;;;;;;;;1.00;1.00;;;;;11.58;84.50;100617.88;5016881;28;45313;-58
2022/12/21 02:56:18;;;;;;;;;1.00;1.00;;;;;11.52;85.07;100626.25;5015954;28;46348;-59
2022/12/21 02:58:43;;;;;;;;;1.33;1.00;;;;;11.45;85.47;100622.22;5016550;28;45386;-58
2022/12/21 03:01:24;;;;;;;;;0.67;0.67;;;;;11.44;84.91;100631.16;5015389;28;45332;-63
2022/12/21 03:04:34;;;;;;;;;0.33;0.33;;;;;11.37;85.38;100630.66;5016900;28;45365;-58
2022/12/21 03:07:20;;;;;;;;;2.00;1.00;;;;;11.32;85.24;100634.53;4938461;28;46994;-62
2022/12/21 03:09:57;;;;;;;;;1.00;1.00;;;;;11.29;85.33;100638.22;5002287;28;45532;-58
2022/12/21 03:12:32;;;;;;;;;2.00;1.00;;;;;11.29;85.66;100642.69;5040170;28;45439;-58
2022/12/21 03:15:12;;;;;;;;;1.00;1.00;;;;;11.27;85.36;100647.25;5039959;28;45434;-58
2022/12/21 03:18:06;;;;;;;;;2.00;1.00;;;;;11.23;84.96;100650.09;5039343;28;46451;-57
2022/12/21 03:21:01;;;;;;;;;0.67;0.67;;;;;11.20;85.06;100644.97;5039230;28;45478;-58
2022/12/21 03:23:45;;;;;;;;;2.33;1.00;;;;;11.20;85.33;100644.97;5039126;28;45387;-59
2022/12/21 03:26:21;;;;;;;;;0.33;0.33;;;;;11.17;85.21;100645.13;5039172;28;45359;-58
2022/12/21 03:28:50;;;;;;;;;0.67;0.67;;;;;11.04;85.22;100630.81;5021329;28;46515;-59
2022/12/21 03:31:20;;;;;;;;;1.00;1.00;;;;;11.14;85.49;100647.97;5039281;28;45320;-57
2022/12/21 03:33:53;;;;;;;;;2.00;0.00;;;;;11.02;85.01;100640.69;5021482;28;45537;-58
2022/12/21 03:36:29;;;;;;;;;1.00;1.00;;;;;10.98;85.13;100633.84;5039356;28;45565;-59
2022/12/21 03:39:07;;;;;;;;;0.00;0.00;;;;;11.01;85.39;100643.44;5039012;28;46294;-58
2022/12/21 03:41:38;;;;;;;;;1.00;1.00;;;;;10.98;85.00;100647.13;5039307;28;45426;-58
2022/12/21 03:44:08;;;;;;;;;0.00;0.00;;;;;10.99;85.41;100661.31;5038236;28;45360;-58
2022/12/21 03:46:54;;;;;;;;;0.33;0.33;;;;;11.00;85.05;100655.03;5039179;28;45265;-57
2022/12/21 03:49:29;;;;;;;;;0.00;0.00;;;;;10.98;84.81;100652.47;5038511;28;46138;-57
2022/12/21 03:51:58;;;;;;;;;2.00;0.00;;;;;10.97;84.89;100642.75;5038918;28;45243;-59
2022/12/21 03:54:47;;;;;;;;;0.00;0.00;;;;;10.97;84.99;100640.09;5039290;28;45343;-57
2022/12/21 03:57:14;;;;;;;;;1.00;1.00;;;;;10.98;84.20;100649.81;5021262;28;45437;-58
2022/12/21 03:59:43;;;;;;;;;0.33;0.33;;;;;10.97;85.07;100650.75;5020802;28;45383;-57
2022/12/21 04:02:16;;;;;;;;;1.00;1.00;;;;;10.94;84.80;100648.25;5020829;28;45551;-58
2022/12/21 04:04:53;;;;;;;;;2.00;1.00;;;;;10.95;84.95;100649.13;5023674;28;45285;-57
2022/12/21 04:07:24;;;;;;;;;0.00;0.00;;;;;10.90;85.07;100646.69;5019160;28;45294;-59
2022/12/21 04:09:56;;;;;;;;;1.00;1.00;;;;;10.95;84.56;100649.13;5018474;28;46355;-58
2022/12/21 04:12:38;;;;;;;;;1.00;1.00;;;;;10.93;84.62;100651.84;5018971;28;45321;-61
2022/12/21 04:15:06;;;;;;;;;0.00;0.00;;;;;10.92;84.83;100660.78;5018674;28;45352;-58
2022/12/21 04:17:31;;;;;;;;;0.33;0.33;;;;;10.92;84.91;100658.13;5018902;28;45567;-58
2022/12/21 04:19:59;;;;;;;;;1.33;1.00;;;;;10.95;84.71;100665.09;5017660;28;46309;-57
2022/12/21 04:28:09;;;;;;;;;1.00;1.00;;;;;10.90;84.78;100660.00;5018641;28;45233;-58
2022/12/21 04:30:39;;;;;;;;;0.67;0.67;;;;;10.93;84.10;100667.81;5018197;28;46439;-58
2022/12/21 04:33:06;;;;;;;;;1.00;1.00;;;;;10.95;83.74;100684.56;5018244;28;45271;-58
2022/12/21 04:35:32;;;;;;;;;0.00;0.00;;;;;10.96;84.02;100670.31;5018466;28;45254;-58
2022/12/21 04:37:58;;;;;;;;;0.00;0.00;;;;;10.90;84.10;100667.97;5018511;28;45660;-58
2022/12/21 04:40:23;;;;;;;;;0.00;0.00;;;;;10.89;83.88;100666.28;5000190;28;46372;-57
2022/12/21 04:42:49;;;;;;;;;0.00;0.00;;;;;10.92;83.85;100666.09;5017473;28;45479;-58
2022/12/21 04:45:14;;;;;;;;;0.67;0.67;;;;;10.92;83.62;100671.41;5018219;28;45452;-57
2022/12/21 04:47:40;;;;;;;;;0.00;0.00;;;;;10.92;84.02;100674.06;5018242;28;45506;-57
2022/12/21 04:50:05;;;;;;;;;0.00;0.00;;;;;10.94;84.23;100680.19;5000407;28;45456;-57
2022/12/21 04:52:31;;;;;;;;;1.33;1.33;;;;;10.91;83.81;100685.66;5018004;28;45389;-57
2022/12/21 04:54:57;;;;;;;;;0.33;0.00;;;;;10.90;83.86;100684.81;5017574;28;45456;-58
2022/12/21 04:57:23;;;;;;;;;1.00;1.00;;;;;10.86;84.09;100682.41;5018056;28;45257;-58
2022/12/21 04:59:48;;;;;;;;;2.00;1.00;;;;;10.84;84.36;100684.31;5018012;28;45272;-58
2022/12/21 05:02:14;;;;;;;;;1.67;0.00;;;;;10.80;84.25;100688.91;5017744;28;45316;-57
2022/12/21 05:04:39;;;;;;;;;0.33;0.33;;;;;10.79;84.10;100691.66;5017556;28;45328;-57
2022/12/21 05:07:05;;;;;;;;;0.00;0.00;;;;;10.74;83.83;100685.75;5017946;28;45660;-57
2022/12/21 05:09:30;;;;;;;;;0.00;0.00;;;;;10.77;84.47;100693.56;5017460;28;45347;-57
2022/12/21 05:11:55;;;;;;;;;1.00;1.00;;;;;10.75;83.87;100690.13;5037423;28;45301;-58
2022/12/21 05:14:21;;;;;;;;;0.00;0.00;;;;;10.72;84.34;100701.81;5037551;28;45256;-57
2022/12/21 05:16:47;;;;;;;;;1.00;1.00;;;;;10.70;83.93;100692.19;5019666;28;45275;-57
2022/12/21 05:19:13;;;;;;;;;1.67;1.00;;;;;10.69;83.62;100696.66;5019061;28;45328;-56
2022/12/21 05:21:38;;;;;;;;;0.67;0.67;;;;;10.62;83.88;100696.13;5037296;28;45453;-56
2022/12/21 05:24:04;;;;;;;;;0.00;0.00;;;;;10.60;83.38;100690.03;5037231;28;45394;-59
2022/12/21 05:26:29;;;;;;;;;2.00;0.00;;;;;10.64;83.21;100704.88;5038098;28;45617;-58
2022/12/21 05:28:55;;;;;;;;;2.00;2.00;;;;;10.58;83.66;100697.25;5037582;28;45430;-59
2022/12/21 05:31:20;;;;;;;;;1.00;1.00;;;;;10.60;82.93;100699.81;5037424;28;45383;-58
2022/12/21 05:33:46;;;;;;;;;2.00;1.00;;;;;10.59;82.86;100701.63;5037607;28;45311;-58
2022/12/21 05:36:13;;;;;;;;;0.00;0.00;;;;;10.55;83.56;100699.22;5037542;28;45369;-58
2022/12/21 05:38:39;;;;;;;;;3.00;1.67;;;;;10.54;83.16;100693.00;5036965;28;46166;-57
2022/12/21 05:41:04;;;;;;;;;1.00;1.00;;;;;10.52;83.13;100694.03;5037143;28;45256;-58
2022/12/21 05:43:30;;;;;;;;;1.67;0.00;;;;;10.50;83.63;100694.13;5037586;28;45324;-58
2022/12/21 05:46:03;;;;;;;;;1.67;1.00;;;;;10.48;83.75;100690.69;5037515;28;45592;-57
2022/12/21 05:48:29;;;;;;;;;1.00;1.00;;;;;10.49;83.63;100702.19;5037523;28;47891;-57
2022/12/21 05:50:54;;;;;;;;;2.00;0.33;;;;;10.47;83.29;100702.28;5020572;28;45989;-58
2022/12/21 05:53:19;;;;;;;;;2.67;1.00;;;;;10.42;83.58;100692.84;5038588;28;45499;-61
2022/12/21 05:55:45;;;;;;;;;1.00;0.00;;;;;10.44;83.45;100702.44;5038479;28;54853;-59
2022/12/21 05:58:11;;;;;;;;;2.00;0.67;;;;;10.38;83.09;100704.56;5037670;28;47364;-56
2022/12/21 06:00:37;;;;;;;;;2.33;2.00;;;;;10.40;83.52;100705.31;5037250;28;45333;-57
2022/12/21 06:03:02;;;;;;;;;1.00;1.00;;;;;10.37;83.01;100711.69;5035867;28;45379;-58
2022/12/21 06:05:27;;;;;;;;;1.33;0.67;;;;;10.29;82.89;100693.50;5017546;28;45183;-58
2022/12/21 06:07:53;;;;;;;;;1.00;1.00;;;;;10.20;83.12;100693.09;4999576;28;47230;-57
2022/12/21 06:10:18;;;;;;;;;1.00;1.00;;;;;10.30;83.08;100705.84;5005495;28;45891;-57
2022/12/21 06:12:44;;;;;;;;;1.00;0.00;;;;;10.27;83.62;100708.63;5037279;28;45437;-57
2022/12/21 06:15:09;;;;;;;;;2.00;2.00;;;;;10.26;83.46;100706.91;5036836;28;45607;-57
2022/12/21 06:17:34;;;;;;;;;1.67;1.33;;;;;10.24;83.62;100706.16;5036438;28;46348;-58
2022/12/21 06:20:00;;;;;;;;;1.33;0.67;;;;;10.23;83.34;100701.78;5019001;28;45431;-58
2022/12/21 06:22:25;;;;;;;;;1.33;0.00;;;;;10.20;83.32;100695.75;5036811;28;45347;-58
2022/12/21 06:24:51;;;;;;;;;0.00;0.00;;;;;10.20;82.57;100706.38;5036917;28;45592;-58
2022/12/21 06:27:17;;;;;;;;;1.00;1.00;;;;;10.17;82.83;100707.41;5035702;28;46211;-57
2022/12/21 06:29:42;;;;;;;;;1.00;1.00;;;;;10.17;83.35;100714.50;5036647;28;45446;-58
2022/12/21 06:32:07;;;;;;;;;1.00;1.00;;;;;10.13;83.38;100708.47;5036705;28;45296;-57
2022/12/21 06:34:33;;;;;;;;;2.33;1.00;;;;;10.15;82.99;100719.03;5037318;28;45469;-59
2022/12/21 06:36:58;;;;;;;;;1.00;0.33;;;;;10.14;83.90;100717.31;5036554;28;45695;-59
2022/12/21 06:39:24;;;;;;;;;1.00;1.00;;;;;10.13;83.55;100719.09;5018486;28;45328;-58
2022/12/21 06:41:49;;;;;;;;;1.00;1.00;;;;;10.13;83.83;100728.88;5035877;28;45489;-58
2022/12/21 06:44:14;;;;;;;;;1.00;1.00;;;;;10.07;83.10;100723.91;5035570;28;45357;-58
2022/12/21 06:46:40;;;;;;;;;0.00;0.00;;;;;10.07;84.01;100721.25;5036156;28;46120;-58
2022/12/21 06:49:05;;;;;;;;;1.00;1.00;;;;;9.98;84.46;100718.09;5036156;28;45229;-58
2022/12/21 06:51:31;;;;;;;;;2.00;2.00;;;;;10.02;83.38;100721.47;5037162;28;45392;-58
2022/12/21 06:53:56;;;;;;;;;2.00;2.00;;;;;9.98;83.98;100706.63;5036640;28;45499;-59
2022/12/21 06:56:26;;;;;;;;;2.25;2.00;;;;;9.99;84.53;100725.13;5017558;28;45330;-57
2022/12/21 06:58:53;;;;;;;;;2.00;2.00;;;;;9.96;83.63;100727.09;5035977;28;45284;-58
2022/12/21 07:01:31;;;;;;;;;1.50;1.50;;;;;9.96;83.81;100733.28;5036067;28;45199;-58
2022/12/21 07:03:57;;;;;;;;;2.00;2.00;;;;;9.91;84.08;100730.00;5018417;28;45518;-57
2022/12/21 07:06:25;;;;;;;;;2.75;2.75;;;;;9.90;84.34;100730.94;5001532;28;48625;-58
2022/12/21 07:08:51;;;;;;;;;4.25;3.00;;;;;9.87;84.54;100736.38;5036042;28;45458;-57
2022/12/21 07:11:19;;;;;;;;;6.50;2.50;;;;;9.86;83.99;100739.97;5035932;28;45428;-58
2022/12/21 07:13:46;;;;;;;;;2.00;2.00;;;;;9.86;83.90;100750.59;5017987;28;45695;-58
2022/12/21 07:16:14;;;;;;;;;2.00;2.00;;;;;9.83;83.34;100748.13;5035463;28;45543;-58
2022/12/21 07:18:40;;;;;;;;;2.50;2.50;;;;;9.78;83.90;100741.31;5035784;28;45444;-57
2022/12/21 07:21:09;;;;;;;;;2.00;2.00;;;;;9.70;82.71;100739.03;5018437;28;45442;-57
2022/12/21 07:23:37;;;;;;;;;1.33;1.33;;;;;9.68;83.69;100732.94;5036584;28;45491;-58
2022/12/21 07:26:13;;;;;;;;;2.00;2.00;;;;;9.70;84.16;100736.38;5036049;28;45285;-57
2022/12/21 07:28:39;;;;;;;;;5.75;5.00;;;;;9.63;82.92;100719.03;5035690;28;45502;-60
2022/12/21 07:31:10;;;;;;;;;2.25;2.25;;;;;9.72;83.13;100740.69;5018465;28;45385;-60
2022/12/21 07:33:38;;;;;;;;;2.00;1.00;;;;;9.66;82.48;100724.22;5018507;28;45573;-56
2022/12/21 07:36:05;;;;;;;;;5.00;3.00;;;;;9.71;83.54;100744.28;5001682;28;45603;-58
2022/12/21 07:38:32;;;;;;;;;5.00;3.00;;;;;9.73;83.98;100746.84;5035568;28;45478;-58
2022/12/21 07:41:00;;;;;;;;;2.00;2.00;;;;;9.71;82.91;100754.91;5035384;28;45459;-58
2022/12/21 07:43:25;;;;;;;;;3.00;2.00;;;;;9.71;83.81;100759.34;5035445;28;45257;-57
2022/12/21 07:45:51;;;;;;;;;5.00;5.00;;;;;9.70;83.41;100765.59;5035168;28;45504;-58
2022/12/21 07:48:17;;;;;;;;;7.00;7.00;;;;;9.69;83.16;100766.53;5035380;28;45276;-58
2022/12/21 07:50:45;;;;;;;;;3.00;3.00;;;;;9.71;84.02;100775.28;5035469;28;45364;-57
2022/12/21 07:53:10;;;;;;;;;5.75;5.00;;;;;9.71;83.21;100775.28;5017687;28;45656;-57
2022/12/21 07:55:35;;;;;;;;;4.00;4.00;;;;;9.70;82.86;100778.88;5037938;28;60533;-57
2022/12/21 07:58:01;;;;;;;;;6.25;6.25;;;;;9.68;83.71;100764.81;5039551;28;45407;-57
2022/12/21 08:00:26;;;;;;;;;5.25;5.25;;;;;9.71;83.94;100781.47;5021337;28;45499;-58
2022/12/21 08:02:51;;;;;;;;;2.25;2.25;;;;;9.70;83.27;100782.38;5039166;28;45336;-58
2022/12/21 08:05:18;;;;;;;;;5.00;5.00;;;;;9.73;83.34;100784.03;5018390;28;47007;-59
2022/12/21 08:07:43;;;;;;;;;4.50;4.50;;;;;9.75;83.81;100776.84;5000804;28;45391;-57
2022/12/21 08:10:09;;;;;;;;;3.50;3.50;;;;;9.71;83.22;100769.97;5018850;28;45331;-58
2022/12/21 08:12:35;;;;;;;;;7.25;5.00;;;;;9.72;83.17;100761.06;5001171;28;45722;-58
2022/12/21 08:15:00;;;;;;;;;8.00;6.00;;;;;9.79;83.12;100773.13;5018324;28;46393;-58
2022/12/21 08:17:26;;;;;;;;;8.00;6.50;;;;;9.87;83.22;100781.53;5018504;28;45264;-58
2022/12/21 08:19:54;;;;;;;;;5.75;5.75;;;;;9.86;82.58;100774.50;5018913;28;45307;-58
2022/12/21 08:22:20;;;;;;;;;4.25;4.25;;;;;9.86;82.88;100774.50;5018944;28;45463;-58
2022/12/21 08:24:45;;;;;;;;;7.67;6.33;;;;;9.94;82.66;100782.13;5000213;28;47561;-60
2022/12/21 08:27:11;;;;;;;;;11.25;6.00;;;;;9.96;83.07;100778.44;5017313;28;45437;-58
2022/12/21 08:29:37;;;;;;;;;7.75;7.00;;;;;9.98;82.05;100778.34;5018550;28;45365;-58
2022/12/21 08:32:03;;;;;;;;;6.25;6.25;;;;;10.00;82.33;100787.09;5018284;28;45513;-57
2022/12/21 08:34:29;;;;;;;;;6.75;6.00;;;;;10.04;81.90;100776.25;5017787;28;45617;-59
2022/12/21 08:36:55;;;;;;;;;12.00;5.00;;;;;10.09;81.81;100775.16;4999519;28;45459;-59
2022/12/21 08:39:21;;;;;;;;;6.33;6.33;;;;;10.12;82.10;100769.69;5019987;28;45511;-56
2022/12/21 08:41:46;;;;;;;;;7.33;5.67;;;;;10.15;81.83;100766.84;5019384;28;45329;-58
2022/12/21 08:44:12;;;;;;;;;7.00;4.67;;;;;10.26;81.96;100783.16;5017951;28;46269;-59
2022/12/21 08:46:37;;;;;;;;;4.67;4.67;;;;;10.29;80.45;100791.00;5000156;28;45316;-59
2022/12/21 08:49:03;;;;;;;;;6.33;3.00;;;;;10.32;81.08;100788.16;5017877;28;45452;-58
2022/12/21 08:51:28;;;;;;;;;4.67;4.67;;;;;10.31;81.07;100791.75;5014812;28;45460;-57
2022/12/21 08:53:54;;;;;;;;;4.33;4.33;;;;;10.38;80.61;100792.28;5017611;28;45680;-58
2022/12/21 08:56:20;;;;;;;;;3.00;3.00;;;;;10.29;79.88;100783.88;5017632;28;45361;-58
2022/12/21 08:58:46;;;;;;;;;6.00;3.00;;;;;10.31;80.52;100782.00;5017328;28;45419;-58
2022/12/21 09:01:11;;;;;;;;;3.00;3.00;;;;;10.38;80.78;100782.50;5018126;28;45542;-59
2022/12/21 09:03:36;;;;;;;;;8.00;6.00;;;;;10.41;80.42;100768.19;5019347;28;45620;-62
2022/12/21 09:06:02;;;;;;;;;6.33;4.33;;;;;10.41;79.95;100766.41;5018656;28;45315;-58
2022/12/21 09:08:28;;;;;;;;;3.75;3.00;;;;;10.41;80.15;100765.53;5000471;28;45866;-60
2022/12/21 09:11:05;;;;;;;;;5.67;3.67;;;;;10.36;80.40;100752.50;5018709;28;45627;-61
2022/12/21 09:13:30;;;;;;;;;2.00;2.00;;;;;10.42;80.75;100772.59;5000103;28;46669;-59
2022/12/21 09:15:56;;;;;;;;;3.67;2.00;;;;;10.36;79.95;100768.44;4999962;28;45431;-59
2022/12/21 09:18:21;;;;;;;;;4.33;3.00;;;;;10.45;79.98;100783.06;5017866;28;45399;-58
2022/12/21 09:20:47;;;;;;;;;3.67;1.67;;;;;10.43;80.35;100777.84;5000323;28;45670;-59
2022/12/21 09:23:13;;;;;;;;;1.00;1.00;;;;;10.44;80.12;100771.56;4999947;28;45414;-59
2022/12/21 09:25:39;;;;;;;;;3.00;3.00;;;;;10.45;80.44;100775.94;4999902;28;45341;-59
2022/12/21 09:28:04;;;;;;;;;3.33;3.33;;;;;10.46;80.20;100777.66;5016729;28;45327;-59
2022/12/21 09:30:30;;;;;;;;;3.33;3.00;;;;;10.41;80.71;100760.22;5017663;28;45331;-59
2022/12/21 09:32:56;;;;;;;;;4.33;3.00;;;;;10.39;79.93;100776.25;5017094;28;45473;-58
2022/12/21 09:35:22;;;;;;;;;8.67;5.67;;;;;10.43;81.32;100785.81;5017276;28;45360;-60
2022/12/21 09:37:47;;;;;;;;;7.25;5.75;;;;;10.43;80.80;100780.50;5018122;28;45353;-59
2022/12/21 09:40:15;;;;;;;;;7.00;6.00;;;;;10.53;80.32;100797.66;5019947;28;45547;-57
2022/12/21 09:43:11;;;;;;;;;3.67;3.67;;;;;10.51;81.02;100801.34;5000170;28;46296;-58
2022/12/21 09:45:52;;;;;;;;;1.00;1.00;;;;;10.58;81.19;100784.13;5017526;28;45396;-59
2022/12/21 09:48:23;;;;;;;;;7.00;3.00;;;;;10.62;81.39;100802.50;5016547;28;45345;-58
2022/12/21 09:50:55;;;;;;;;;4.33;4.33;;;;;10.59;81.00;100804.47;5017469;28;45294;-58
2022/12/21 09:53:28;;;;;;;;;3.00;3.00;;;;;10.57;81.25;100799.25;4982482;28;48054;-58
2022/12/21 09:55:57;;;;;;;;;6.33;3.00;;;;;10.64;80.69;100813.91;4999189;28;45361;-58
2022/12/21 09:58:33;;;;;;;;;3.00;3.00;;;;;10.58;81.19;100800.09;5017154;28;45285;-59
2022/12/21 10:01:13;;;;;;;;;3.00;3.00;;;;;10.66;81.20;100805.84;5016790;28;45324;-58
2022/12/21 10:04:07;;;;;;;;;6.00;4.67;;;;;10.66;80.55;100802.34;5016756;28;45442;-59
2022/12/21 10:06:54;;;;;;;;;3.00;3.00;;;;;10.70;81.46;100811.88;4999549;28;45578;-59
2022/12/21 10:09:41;;;;;;;;;4.33;4.33;;;;;10.74;80.06;100816.09;4999226;28;45296;-59
2022/12/21 10:12:36;;;;;;;;;8.00;7.00;;;;;10.74;80.77;100808.97;5017508;28;45298;-61
2022/12/21 10:15:20;;;;;;;;;4.33;4.33;;;;;10.79;80.46;100820.22;5016542;28;45197;-59
2022/12/21 10:18:16;;;;;;;;;6.00;3.00;;;;;10.84;80.25;100812.00;4999268;28;45616;-58
2022/12/21 10:20:52;;;;;;;;;6.00;6.00;;;;;10.87;80.54;100809.19;4999145;28;45806;-59
2022/12/21 10:23:24;;;;;;;;;6.00;3.67;;;;;10.92;80.43;100799.13;5017884;28;45495;-59
2022/12/21 10:25:56;;;;;;;;;6.33;4.00;;;;;10.94;80.34;100786.63;5016620;28;47483;-57
2022/12/21 10:28:41;;;;;;;;;7.00;4.67;;;;;10.98;80.26;100793.50;5016495;28;45413;-59
2022/12/21 10:31:09;;;;;;;;;6.33;3.00;;;;;10.97;80.09;100785.59;5016255;28;45388;-59
2022/12/21 10:33:40;;;;;;;;;4.33;4.33;;;;;10.98;80.44;100782.84;5016522;28;45534;-59
2022/12/21 10:36:13;;;;;;;;;4.33;4.33;;;;;11.06;79.80;100779.75;5016232;28;46130;-58
2022/12/21 10:38:39;;;;;;;;;3.00;3.00;;;;;11.07;79.91;100770.84;5015800;28;45237;-57
2022/12/21 10:41:12;;;;;;;;;5.33;3.00;;;;;11.01;80.28;100764.06;5016380;28;45363;-59
2022/12/21 10:43:39;;;;;;;;;4.33;3.00;;;;;11.07;79.60;100763.72;5016522;28;45845;-59
2022/12/21 10:46:05;;;;;;;;;5.33;2.00;;;;;11.03;79.44;100756.84;4997895;28;45531;-59
2022/12/21 10:48:31;;;;;;;;;3.00;3.00;;;;;11.04;80.01;100755.88;4998190;28;45503;-58
2022/12/21 10:51:20;;;;;;;;;4.00;4.00;;;;;11.06;79.52;100732.69;5015917;28;45451;-59
2022/12/21 10:54:19;;;;;;;;;8.00;2.67;;;;;11.13;79.39;100750.06;5016559;28;45452;-58
2022/12/21 10:56:48;;;;;;;;;5.00;3.33;;;;;11.12;80.03;100740.38;4997744;28;47201;-58
2022/12/21 10:59:27;;;;;;;;;7.00;4.67;;;;;11.17;79.74;100729.44;4997450;28;45438;-59
2022/12/21 11:01:53;;;;;;;;;4.67;4.67;;;;;11.20;79.23;100730.16;5016071;28;45232;-59
2022/12/21 11:04:21;;;;;;;;;4.00;4.00;;;;;11.26;79.47;100726.28;4998689;28;45644;-59
2022/12/21 11:07:27;;;;;;;;;4.00;4.00;;;;;11.37;79.89;100728.34;5015893;28;45465;-59
2022/12/21 11:09:59;;;;;;;;;2.00;2.00;;;;;11.30;78.29;100718.97;5017836;28;45401;-59
2022/12/21 11:12:25;;;;;;;;;4.67;4.67;;;;;11.26;79.18;100722.75;5018766;28;45439;-58
2022/12/21 11:14:53;;;;;;;;;6.00;4.00;;;;;11.22;79.00;100712.28;5037805;28;45398;-60
2022/12/21 11:17:25;;;;;;;;;3.00;3.00;;;;;11.28;79.33;100712.88;5021014;28;45411;-60
2022/12/21 11:20:16;;;;;;;;;8.00;4.00;;;;;11.33;78.93;100709.03;5038361;28;45378;-57
2022/12/21 11:22:45;;;;;;;;;9.33;8.00;;;;;11.45;79.52;100707.44;5037363;28;45369;-59
2022/12/21 11:25:21;;;;;;;;;5.00;4.00;;;;;11.54;77.92;100706.91;5037805;28;45440;-57
2022/12/21 11:27:49;;;;;;;;;12.00;6.00;;;;;11.59;78.13;100694.19;5018760;28;46727;-59
2022/12/21 11:30:22;;;;;;;;;6.00;5.33;;;;;11.73;77.19;100696.03;5037483;28;45343;-59
2022/12/21 11:32:49;;;;;;;;;6.00;6.00;;;;;11.87;77.24;100692.59;5039774;28;45358;-67
2022/12/21 11:35:21;;;;;;;;;6.00;6.00;;;;;11.94;76.69;100699.25;5021482;28;45226;-58
2022/12/21 11:37:53;;;;;;;;;8.00;4.67;;;;;11.88;76.73;100694.31;5039037;28;45419;-58
2022/12/21 11:40:24;;;;;;;;;7.33;4.00;;;;;11.83;76.62;100689.22;5039104;28;45316;-58
2022/12/21 11:42:59;;;;;;;;;9.00;8.00;;;;;11.78;77.07;100672.63;5038997;28;45221;-58
2022/12/21 11:45:30;;;;;;;;;6.33;6.33;;;;;11.80;77.32;100671.63;5038908;28;45560;-58
2022/12/21 11:48:15;;;;;;;;;6.00;4.00;;;;;11.82;76.51;100664.38;5020562;28;47329;-59